Time,TemperatureF,DewpointF,PressureIn,WindDirection,WindDirectionDegrees,WindSpeedMPH,WindSpeedGustMPH,Humidity,HourlyPrecipIn,Conditions,Clouds,dailyrainin,SoftwareType,DateUTC
2013-04-09 00:00:00,70.0,56.4,30.21,ESE,112,0.0,1.1,62,0.00,,---,0.00,VWS V14.01,2013-04-09 04:00:00,
2013-04-09 00:01:00,70.0,56.4,30.21,ENE,68,2.2,2.2,62,0.00,,---,0.00,VWS V14.01,2013-04-09 04:01:00,
2013-04-09 00:02:00,70.0,55.9,30.21,ESE,112,2.2,3.6,61,0.00,,---,0.00,VWS V14.01,2013-04-09 04:02:00,
2013-04-09 00:06:00,69.8,55.8,30.21,ESE,112,2.7,2.7,61,0.00,,---,0.00,VWS V14.01,2013-04-09 04:06:00,
2013-04-09 00:11:00,70.0,55.5,30.21,SSE,158,1.3,3.1,60,0.00,,---,0.00,VWS V14.01,2013-04-09 04:11:00,
2013-04-09 00:16:00,70.0,55.5,30.21,ENE,68,2.5,2.5,60,0.00,,---,0.00,VWS V14.01,2013-04-09 04:16:00,
2013-04-09 00:21:00,69.8,54.8,30.21,SE,135,2.7,2.7,59,0.00,,---,0.00,VWS V14.01,2013-04-09 04:21:00,
2013-04-09 00:27:00,69.8,54.8,30.21,East,90,2.9,2.9,59,0.00,,---,0.00,VWS V14.01,2013-04-09 04:27:00,
2013-04-09 00:32:00,69.8,54.8,30.21,East,90,6.5,6.5,59,0.00,,---,0.00,VWS V14.01,2013-04-09 04:32:00,
2013-04-09 00:37:00,69.8,54.4,30.21,ESE,112,2.9,4.7,58,0.00,,---,0.00,VWS V14.01,2013-04-09 04:37:00,
2013-04-09 00:42:00,69.8,54.4,30.21,SSE,158,2.5,3.6,58,0.00,,---,0.00,VWS V14.01,2013-04-09 04:42:00,
2013-04-09 00:47:00,69.8,54.4,30.21,ESE,112,1.6,2.0,58,0.00,,---,0.00,VWS V14.01,2013-04-09 04:47:00,
2013-04-09 00:53:00,69.8,54.4,30.21,NE,45,1.1,2.2,58,0.00,,---,0.00,VWS V14.01,2013-04-09 04:53:00,
2013-04-09 00:59:00,69.6,54.2,30.21,NNE,22,0.9,5.8,58,0.00,,---,0.00,VWS V14.01,2013-04-09 04:59:00,
2013-04-09 03:37:00,66.7,54.6,30.15,East,90,0.0,1.3,65,0.00,,---,0.00,VWS V14.01,2013-04-09 07:37:00,
2013-04-09 03:42:00,66.6,54.4,30.15,ESE,112,0.0,0.0,65,0.00,,---,0.00,VWS V14.01,2013-04-09 07:42:00,
2013-04-09 03:48:00,66.4,54.3,30.15,ESE,112,1.1,1.1,65,0.00,,---,0.00,VWS V14.01,2013-04-09 07:48:00,
2013-04-09 03:54:00,66.2,54.5,30.15,East,90,0.0,1.3,66,0.00,,---,0.00,VWS V14.01,2013-04-09 07:54:00,
2013-04-09 03:59:00,66.2,54.5,30.15,ENE,68,0.0,0.0,66,0.00,,---,0.00,VWS V14.01,2013-04-09 07:59:00,
2013-04-09 04:04:00,66.0,54.8,30.15,East,90,0.0,0.0,67,0.00,,---,0.00,VWS V14.01,2013-04-09 08:04:00,
2013-04-09 04:10:00,66.0,54.8,30.15,East,90,0.0,0.0,67,0.00,,---,0.00,VWS V14.01,2013-04-09 08:10:00,
2013-04-09 04:15:00,65.8,54.6,30.15,ESE,112,0.0,0.0,67,0.00,,---,0.00,VWS V14.01,2013-04-09 08:15:00,
2013-04-09 04:20:00,65.8,55.0,30.15,SE,135,0.0,0.0,68,0.00,,---,0.00,VWS V14.01,2013-04-09 08:20:00,
2013-04-09 04:25:00,65.8,55.0,30.15,East,90,1.3,1.3,68,0.00,,---,0.00,VWS V14.01,2013-04-09 08:25:00,
2013-04-09 04:30:00,65.7,54.8,30.15,ESE,112,0.0,1.1,68,0.00,,---,0.00,VWS V14.01,2013-04-09 08:30:00,
2013-04-09 04:35:00,65.7,54.8,30.15,NNE,22,0.0,0.0,68,0.00,,---,0.00,VWS V14.01,2013-04-09 08:35:00,
2013-04-09 04:40:00,65.7,54.8,30.15,ESE,112,0.0,0.0,68,0.00,,---,0.00,VWS V14.01,2013-04-09 08:40:00,
2013-04-09 04:45:00,65.7,55.2,30.15,ESE,112,0.0,0.9,69,0.00,,---,0.00,VWS V14.01,2013-04-09 08:45:00,
2013-04-09 04:51:00,65.5,55.0,30.15,NE,45,0.0,0.0,69,0.00,,---,0.00,VWS V14.01,2013-04-09 08:51:00,
2013-04-09 04:56:00,65.5,55.0,30.15,ESE,112,0.0,0.9,69,0.00,,---,0.00,VWS V14.01,2013-04-09 08:56:00,
2013-04-09 05:01:00,65.5,55.0,30.15,ENE,68,0.0,0.0,69,0.00,,---,0.00,VWS V14.01,2013-04-09 09:01:00,
2013-04-09 05:06:00,65.5,55.0,30.15,ENE,68,0.0,1.6,69,0.00,,---,0.00,VWS V14.01,2013-04-09 09:06:00,
2013-04-09 05:11:00,65.5,55.5,30.15,ENE,68,0.0,1.1,70,0.00,,---,0.00,VWS V14.01,2013-04-09 09:11:00,
2013-04-09 05:17:00,65.5,55.5,30.15,NNW,338,0.0,0.0,70,0.00,,---,0.00,VWS V14.01,2013-04-09 09:17:00,
2013-04-09 05:22:00,65.5,55.5,30.15,East,90,0.0,0.0,70,0.00,,---,0.00,VWS V14.01,2013-04-09 09:22:00,
2013-04-09 05:27:00,65.3,55.3,30.15,ESE,112,0.0,0.0,70,0.00,,---,0.00,VWS V14.01,2013-04-09 09:27:00,
2013-04-09 05:32:00,65.3,55.3,30.15,East,90,0.0,0.0,70,0.00,,---,0.00,VWS V14.01,2013-04-09 09:32:00,
2013-04-09 05:37:00,65.3,55.3,30.15,East,90,0.0,0.0,70,0.00,,---,0.00,VWS V14.01,2013-04-09 09:37:00,
2013-04-09 05:42:00,65.1,55.1,30.15,ESE,112,0.0,0.0,70,0.00,,---,0.00,VWS V14.01,2013-04-09 09:42:00,
2013-04-09 05:47:00,65.1,55.1,30.15,ESE,112,0.0,0.0,70,0.00,,---,0.00,VWS V14.01,2013-04-09 09:47:00,
2013-04-09 05:52:00,64.9,55.3,30.15,ESE,112,0.0,0.0,71,0.00,,---,0.00,VWS V14.01,2013-04-09 09:52:00,
2013-04-09 05:57:00,64.9,55.3,30.15,NE,45,0.0,0.0,71,0.00,,---,0.00,VWS V14.01,2013-04-09 09:57:00,
2013-04-09 06:02:00,64.8,55.2,30.15,SE,135,0.0,0.0,71,0.00,,---,0.00,VWS V14.01,2013-04-09 10:02:00,
2013-04-09 06:08:00,64.8,55.2,30.15,SSW,202,0.0,0.0,71,0.00,,---,0.00,VWS V14.01,2013-04-09 10:08:00,
2013-04-09 06:14:00,64.8,55.2,30.15,ENE,68,0.0,0.0,71,0.00,,---,0.00,VWS V14.01,2013-04-09 10:14:00,
2013-04-09 06:19:00,64.6,55.0,30.15,ESE,112,0.0,0.0,71,0.00,,---,0.00,VWS V14.01,2013-04-09 10:19:00,
2013-04-09 06:24:00,64.4,54.8,30.15,ESE,112,0.0,0.0,71,0.00,,---,0.00,VWS V14.01,2013-04-09 10:24:00,
2013-04-09 06:30:00,64.2,55.0,30.15,ESE,112,0.0,0.0,72,0.00,,---,0.00,VWS V14.01,2013-04-09 10:30:00,
2013-04-09 06:35:00,64.2,55.0,30.15,ESE,112,0.0,0.0,72,0.00,,---,0.00,VWS V14.01,2013-04-09 10:35:00,
2013-04-09 06:40:00,64.0,54.8,30.15,East,90,0.0,0.0,72,0.00,,---,0.00,VWS V14.01,2013-04-09 10:40:00,
2013-04-09 06:45:00,64.0,54.8,30.15,NE,45,0.0,0.0,72,0.00,,---,0.00,VWS V14.01,2013-04-09 10:45:00,
2013-04-09 06:50:00,64.0,54.8,30.15,ENE,68,1.1,2.0,72,0.00,,---,0.00,VWS V14.01,2013-04-09 10:50:00,
2013-04-09 06:55:00,64.0,54.8,30.15,ESE,112,0.0,0.0,72,0.00,,---,0.00,VWS V14.01,2013-04-09 10:55:00,
2013-04-09 07:00:00,64.0,55.2,30.15,ESE,112,0.9,2.0,73,0.00,,---,0.00,VWS V14.01,2013-04-09 11:00:00,
2013-04-09 07:05:00,64.0,55.2,30.15,ESE,112,1.3,1.3,73,0.00,,---,0.00,VWS V14.01,2013-04-09 11:05:00,
2013-04-09 07:10:00,64.0,55.2,30.15,ESE,112,0.0,1.6,73,0.00,,---,0.00,VWS V14.01,2013-04-09 11:10:00,
2013-04-09 07:15:00,63.9,55.4,30.18,SSE,158,0.0,2.0,74,0.00,,---,0.00,VWS V14.01,2013-04-09 11:15:00,
2013-04-09 07:20:00,64.0,55.6,30.18,SE,135,0.0,1.1,74,0.00,,---,0.00,VWS V14.01,2013-04-09 11:20:00,
2013-04-09 07:25:00,64.0,55.6,30.18,ESE,112,0.0,0.0,74,0.00,,---,0.00,VWS V14.01,2013-04-09 11:25:00,
2013-04-09 07:31:00,64.0,55.6,30.18,East,90,0.9,1.1,74,0.00,,---,0.00,VWS V14.01,2013-04-09 11:31:00,
2013-04-09 07:36:00,64.0,55.6,30.18,ESE,112,0.0,0.0,74,0.00,,---,0.00,VWS V14.01,2013-04-09 11:36:00,
2013-04-09 07:41:00,64.2,56.1,30.18,NNE,22,0.0,0.9,75,0.00,,---,0.00,VWS V14.01,2013-04-09 11:41:00,
2013-04-09 07:46:00,64.2,56.1,30.18,NNE,22,1.1,2.0,75,0.00,,---,0.00,VWS V14.01,2013-04-09 11:46:00,
2013-04-09 07:51:00,64.2,56.1,30.18,NNE,22,0.9,0.9,75,0.00,,---,0.00,VWS V14.01,2013-04-09 11:51:00,
2013-04-09 07:57:00,64.4,56.3,30.18,ESE,112,0.0,1.6,75,0.00,,---,0.00,VWS V14.01,2013-04-09 11:57:00,
2013-04-09 08:02:00,64.8,57.0,30.18,East,90,1.1,3.1,76,0.00,,---,0.00,VWS V14.01,2013-04-09 12:02:00,
2013-04-09 08:07:00,64.9,57.2,30.18,ENE,68,2.5,2.5,76,0.00,,---,0.00,VWS V14.01,2013-04-09 12:07:00,
2013-04-09 08:12:00,65.3,57.9,30.18,ESE,112,0.9,2.0,77,0.00,,---,0.00,VWS V14.01,2013-04-09 12:12:00,
2013-04-09 08:17:00,65.7,58.3,30.18,NNE,22,0.0,2.0,77,0.00,,---,0.00,VWS V14.01,2013-04-09 12:17:00,
2013-04-09 08:22:00,65.8,58.4,30.18,East,90,2.7,4.7,77,0.00,,---,0.00,VWS V14.01,2013-04-09 12:22:00,
2013-04-09 08:28:00,66.2,58.8,30.18,East,90,2.0,5.4,77,0.00,,---,0.00,VWS V14.01,2013-04-09 12:28:00,
2013-04-09 08:34:00,66.4,59.3,30.18,ENE,68,2.5,3.4,78,0.00,,---,0.00,VWS V14.01,2013-04-09 12:34:00,
2013-04-09 08:39:00,66.9,59.8,30.18,ESE,112,1.6,2.2,78,0.00,,---,0.00,VWS V14.01,2013-04-09 12:39:00,
2013-04-09 08:44:00,67.5,60.4,30.18,ENE,68,0.9,2.9,78,0.00,,---,0.00,VWS V14.01,2013-04-09 12:44:00,
2013-04-09 08:49:00,68.0,60.9,30.18,ESE,112,3.1,5.6,78,0.00,,---,0.00,VWS V14.01,2013-04-09 12:49:00,
2013-04-09 08:54:00,68.4,60.9,30.18,East,90,3.6,4.7,77,0.00,,---,0.00,VWS V14.01,2013-04-09 12:54:00,
2013-04-09 08:59:00,68.7,61.2,30.18,NE,45,1.6,3.8,77,0.00,,---,0.00,VWS V14.01,2013-04-09 12:59:00,
2013-04-09 09:04:00,69.1,61.6,30.21,SE,135,3.1,3.4,77,0.00,,---,0.00,VWS V14.01,2013-04-09 13:04:00,
2013-04-09 09:10:00,69.6,61.7,30.21,East,90,2.5,3.6,76,0.00,,---,0.00,VWS V14.01,2013-04-09 13:10:00,
2013-04-09 09:16:00,70.0,61.7,30.18,ESE,112,1.6,1.6,75,0.00,,---,0.00,VWS V14.01,2013-04-09 13:16:00,
2013-04-09 09:22:00,70.5,61.8,30.18,ESE,112,1.6,1.6,74,0.00,,---,0.00,VWS V14.01,2013-04-09 13:22:00,
2013-04-09 09:27:00,70.5,61.8,30.18,SE,135,1.3,1.3,74,0.00,,---,0.00,VWS V14.01,2013-04-09 13:27:00,
2013-04-09 09:33:00,70.5,61.8,30.21,SSE,158,2.2,2.2,74,0.00,,---,0.00,VWS V14.01,2013-04-09 13:33:00,
2013-04-09 09:38:00,70.5,61.8,30.21,SSE,158,2.2,2.2,74,0.00,,---,0.00,VWS V14.01,2013-04-09 13:38:00,
2013-04-09 09:43:00,70.5,61.8,30.21,South,180,1.6,1.6,74,0.00,,---,0.00,VWS V14.01,2013-04-09 13:43:00,
2013-04-09 09:48:00,70.5,61.8,30.21,ESE,112,3.6,3.6,74,0.00,,---,0.00,VWS V14.01,2013-04-09 13:48:00,
2013-04-09 09:53:00,70.5,61.8,30.21,ESE,112,3.6,3.6,74,0.00,,---,0.00,VWS V14.01,2013-04-09 13:53:00,
2013-04-09 10:00:00,70.5,61.8,30.21,ESE,112,3.6,3.6,74,0.00,,---,0.00,VWS V14.01,2013-04-09 14:00:00,
2013-04-09 10:05:00,70.5,61.8,30.21,ESE,112,3.6,3.6,74,0.00,,---,0.00,VWS V14.01,2013-04-09 14:05:00,
2013-04-09 10:10:00,70.5,61.8,30.21,ESE,112,3.6,3.6,74,0.00,,---,0.00,VWS V14.01,2013-04-09 14:10:00,
2013-04-09 10:17:00,70.5,61.8,30.21,ESE,112,3.6,3.6,74,0.00,,---,0.00,VWS V14.01,2013-04-09 14:17:00,
2013-04-09 10:22:00,70.5,61.8,30.21,ESE,112,3.6,3.6,74,0.00,,---,0.00,VWS V14.01,2013-04-09 14:22:00,
2013-04-09 10:27:00,76.5,62.9,30.21,East,90,3.8,7.8,63,0.00,,---,0.00,VWS V14.01,2013-04-09 14:27:00,
2013-04-09 10:33:00,76.8,62.8,30.21,SSE,158,3.6,3.6,62,0.00,,---,0.00,VWS V14.01,2013-04-09 14:33:00,
2013-04-09 10:39:00,76.8,62.8,30.21,SSE,158,3.6,3.6,62,0.00,,---,0.00,VWS V14.01,2013-04-09 14:39:00,
2013-04-09 10:44:00,77.4,61.4,30.21,SSE,158,3.6,3.6,58,0.00,,---,0.00,VWS V14.01,2013-04-09 14:44:00,
2013-04-09 10:49:00,78.1,61.1,30.21,SSE,158,2.2,3.8,56,0.00,,---,0.00,VWS V14.01,2013-04-09 14:49:00,
2013-04-09 10:54:00,78.4,61.0,30.21,East,90,2.0,2.5,55,0.00,,---,0.00,VWS V14.01,2013-04-09 14:54:00,
2013-04-09 10:59:00,78.4,60.4,30.21,SE,135,3.8,3.8,54,0.00,,---,0.00,VWS V14.01,2013-04-09 14:59:00,
2013-04-09 11:04:00,78.3,59.2,30.21,SE,135,2.7,2.7,52,0.00,,---,0.00,VWS V14.01,2013-04-09 15:04:00,
2013-04-09 11:10:00,78.4,59.4,30.21,ESE,112,2.9,4.0,52,0.00,,---,0.00,VWS V14.01,2013-04-09 15:10:00,
2013-04-09 11:15:00,78.8,59.2,30.24,ESE,112,4.7,4.7,51,0.00,,---,0.00,VWS V14.01,2013-04-09 15:15:00,
2013-04-09 11:20:00,79.0,58.8,30.24,ESE,112,7.2,7.2,50,0.00,,---,0.00,VWS V14.01,2013-04-09 15:20:00,
2013-04-09 11:25:00,79.2,58.9,30.24,ENE,68,2.5,3.1,50,0.00,,---,0.00,VWS V14.01,2013-04-09 15:25:00,
2013-04-09 11:30:00,79.5,59.3,30.21,East,90,2.7,6.3,50,0.00,,---,0.00,VWS V14.01,2013-04-09 15:30:00,
2013-04-09 11:36:00,80.2,59.4,30.21,East,90,3.8,3.8,49,0.00,,---,0.00,VWS V14.01,2013-04-09 15:36:00,
2013-04-09 11:41:00,80.8,58.1,30.21,East,90,6.3,6.3,46,0.00,,---,0.00,VWS V14.01,2013-04-09 15:41:00,
2013-04-09 11:46:00,81.1,57.8,30.21,ESE,112,4.0,6.9,45,0.00,,---,0.00,VWS V14.01,2013-04-09 15:46:00,
2013-04-09 11:51:00,81.7,57.7,30.21,SSW,202,4.0,6.5,44,0.00,,---,0.00,VWS V14.01,2013-04-09 15:51:00,
2013-04-09 11:56:00,82.2,57.5,30.21,NNW,338,2.7,2.7,43,0.00,,---,0.00,VWS V14.01,2013-04-09 15:56:00,
2013-04-09 12:01:00,82.2,56.9,30.24,SW,225,2.0,3.8,42,0.00,,---,0.00,VWS V14.01,2013-04-09 16:01:00,
2013-04-09 12:06:00,82.2,56.2,30.24,South,180,4.0,4.0,41,0.00,,---,0.00,VWS V14.01,2013-04-09 16:06:00,
2013-04-09 12:11:00,81.9,55.2,30.24,South,180,1.3,7.6,40,0.00,,---,0.00,VWS V14.01,2013-04-09 16:11:00,
2013-04-09 12:17:00,81.5,54.9,30.24,SW,225,3.4,3.6,40,0.00,,---,0.00,VWS V14.01,2013-04-09 16:17:00,
2013-04-09 12:22:00,81.1,54.5,30.24,East,90,2.7,7.8,40,0.00,,---,0.00,VWS V14.01,2013-04-09 16:22:00,
2013-04-09 12:27:00,81.0,53.7,30.24,East,90,3.1,5.8,39,0.00,,---,0.00,VWS V14.01,2013-04-09 16:27:00,
2013-04-09 12:33:00,80.8,53.5,30.21,ESE,112,4.9,5.6,39,0.00,,---,0.00,VWS V14.01,2013-04-09 16:33:00,
2013-04-09 12:39:00,80.8,53.5,30.21,East,90,2.9,3.6,39,0.00,,---,0.00,VWS V14.01,2013-04-09 16:39:00,
2013-04-09 12:44:00,80.8,53.5,30.21,ENE,68,3.8,3.8,39,0.00,,---,0.00,VWS V14.01,2013-04-09 16:44:00,
2013-04-09 12:50:00,80.8,53.5,30.21,SE,135,3.8,3.8,39,0.00,,---,0.00,VWS V14.01,2013-04-09 16:50:00,
2013-04-09 12:55:00,80.8,53.5,30.21,ENE,68,4.9,4.9,39,0.00,,---,0.00,VWS V14.01,2013-04-09 16:55:00,
2013-04-09 13:01:00,80.8,53.5,30.21,ESE,112,4.0,4.0,39,0.00,,---,0.00,VWS V14.01,2013-04-09 17:01:00,
2013-04-09 13:06:00,80.8,52.8,30.21,NNE,22,2.9,2.9,38,0.00,,---,0.00,VWS V14.01,2013-04-09 17:06:00,
2013-04-09 13:11:00,80.8,52.8,30.21,ESE,112,7.2,7.2,38,0.00,,---,0.00,VWS V14.01,2013-04-09 17:11:00,
2013-04-09 13:16:00,80.8,52.8,30.21,ESE,112,3.4,3.4,38,0.00,,---,0.00,VWS V14.01,2013-04-09 17:16:00,
2013-04-09 13:21:00,80.8,52.8,30.21,ENE,68,2.0,3.6,38,0.00,,---,0.00,VWS V14.01,2013-04-09 17:21:00,
2013-04-09 13:26:00,80.8,52.8,30.21,NNE,22,1.1,3.4,38,0.00,,---,0.00,VWS V14.01,2013-04-09 17:26:00,
2013-04-09 13:32:00,80.8,52.8,30.21,ESE,112,10.5,10.5,38,0.00,,---,0.00,VWS V14.01,2013-04-09 17:32:00,
2013-04-09 13:39:00,80.8,52.8,30.21,SE,135,7.8,7.8,38,0.00,,---,0.00,VWS V14.01,2013-04-09 17:39:00,
2013-04-09 13:44:00,83.7,53.9,30.21,ESE,112,4.0,7.6,36,0.00,,---,0.00,VWS V14.01,2013-04-09 17:44:00,
2013-04-09 13:49:00,84.4,53.0,30.18,SE,135,5.4,5.4,34,0.00,,---,0.00,VWS V14.01,2013-04-09 17:49:00,
2013-04-09 13:55:00,84.4,53.0,30.18,East,90,2.7,2.9,34,0.00,,---,0.00,VWS V14.01,2013-04-09 17:55:00,
2013-04-09 14:01:00,84.7,53.3,30.18,ENE,68,3.4,6.0,34,0.00,,---,0.00,VWS V14.01,2013-04-09 18:01:00,
2013-04-09 14:06:00,85.3,53.8,30.18,ENE,68,4.7,4.7,34,0.00,,---,0.00,VWS V14.01,2013-04-09 18:06:00,
2013-04-09 14:11:00,85.5,53.1,30.18,East,90,3.1,4.0,33,0.00,,---,0.00,VWS V14.01,2013-04-09 18:11:00,
2013-04-09 14:16:00,85.6,53.3,30.18,East,90,3.8,5.4,33,0.00,,---,0.00,VWS V14.01,2013-04-09 18:16:00,
2013-04-09 14:22:00,85.6,53.3,30.18,ENE,68,5.8,7.8,33,0.00,,---,0.00,VWS V14.01,2013-04-09 18:22:00,
2013-04-09 14:27:00,85.8,53.4,30.18,SE,135,4.3,4.3,33,0.00,,---,0.00,VWS V14.01,2013-04-09 18:27:00,
2013-04-09 14:33:00,86.0,52.7,30.18,South,180,10.3,10.3,32,0.00,,---,0.00,VWS V14.01,2013-04-09 18:33:00,
2013-04-09 14:38:00,85.8,52.6,30.18,ENE,68,2.5,2.7,32,0.00,,---,0.00,VWS V14.01,2013-04-09 18:38:00,
2013-04-09 14:44:00,85.8,52.6,30.18,East,90,3.1,4.3,32,0.00,,---,0.00,VWS V14.01,2013-04-09 18:44:00,
2013-04-09 14:49:00,85.8,52.6,30.18,ESE,112,3.6,3.6,32,0.00,,---,0.00,VWS V14.01,2013-04-09 18:49:00,
2013-04-09 14:54:00,86.0,52.7,30.18,ENE,68,4.7,4.7,32,0.00,,---,0.00,VWS V14.01,2013-04-09 18:54:00,
2013-04-09 14:59:00,86.2,52.0,30.18,SE,135,4.0,4.0,31,0.00,,---,0.00,VWS V14.01,2013-04-09 18:59:00,
2013-04-09 15:04:00,86.4,53.0,30.18,ESE,112,2.9,2.9,32,0.00,,---,0.00,VWS V14.01,2013-04-09 19:04:00,
2013-04-09 15:09:00,86.9,53.5,30.18,WSW,248,3.6,3.8,32,0.00,,---,0.00,VWS V14.01,2013-04-09 19:09:00,
2013-04-09 15:14:00,87.3,53.0,30.18,SSW,202,4.0,7.2,31,0.00,,---,0.00,VWS V14.01,2013-04-09 19:14:00,
2013-04-09 15:19:00,86.9,52.7,30.18,SSW,202,2.5,3.4,31,0.00,,---,0.00,VWS V14.01,2013-04-09 19:19:00,
2013-04-09 15:24:00,86.7,53.4,30.18,SSW,202,4.0,4.0,32,0.00,,---,0.00,VWS V14.01,2013-04-09 19:24:00,
2013-04-09 15:30:00,86.0,52.7,30.18,South,180,3.4,3.4,32,0.00,,---,0.00,VWS V14.01,2013-04-09 19:30:00,
2013-04-09 15:35:00,85.5,53.1,30.18,SSW,202,2.9,4.0,33,0.00,,---,0.00,VWS V14.01,2013-04-09 19:35:00,
2013-04-09 15:40:00,85.6,54.1,30.18,SSW,202,3.1,4.9,34,0.00,,---,0.00,VWS V14.01,2013-04-09 19:40:00,
2013-04-09 15:46:00,86.0,54.4,30.18,SSW,202,3.6,6.7,34,0.00,,---,0.00,VWS V14.01,2013-04-09 19:46:00,
2013-04-09 15:52:00,85.3,53.8,30.18,SW,225,7.4,7.4,34,0.00,,---,0.00,VWS V14.01,2013-04-09 19:52:00,
2013-04-09 15:57:00,84.2,52.8,30.18,SW,225,4.0,4.0,34,0.00,,---,0.00,VWS V14.01,2013-04-09 19:57:00,
2013-04-09 16:02:00,84.6,53.9,30.15,SW,225,3.4,7.8,35,0.00,,---,0.00,VWS V14.01,2013-04-09 20:02:00,
2013-04-09 16:08:00,84.6,54.7,30.15,SSW,202,5.8,5.8,36,0.00,,---,0.00,VWS V14.01,2013-04-09 20:08:00,
2013-04-09 16:13:00,84.4,55.3,30.15,SSE,158,4.0,7.8,37,0.00,,---,0.00,VWS V14.01,2013-04-09 20:13:00,
2013-04-09 16:19:00,83.7,55.4,30.15,SW,225,0.0,2.5,38,0.00,,---,0.00,VWS V14.01,2013-04-09 20:19:00,
2013-04-09 16:24:00,83.5,55.9,30.15,NW,315,6.0,6.0,39,0.00,,---,0.00,VWS V14.01,2013-04-09 20:24:00,
2013-04-09 16:29:00,82.9,55.5,30.15,WSW,248,2.9,3.6,39,0.00,,---,0.00,VWS V14.01,2013-04-09 20:29:00,
2013-04-09 16:34:00,82.8,55.3,30.15,WSW,248,3.1,3.1,39,0.00,,---,0.00,VWS V14.01,2013-04-09 20:34:00,
2013-04-09 16:40:00,83.3,55.8,30.15,WSW,248,3.4,5.6,39,0.00,,---,0.00,VWS V14.01,2013-04-09 20:40:00,
2013-04-09 16:46:00,82.8,55.3,30.15,NW,315,1.1,3.1,39,0.00,,---,0.00,VWS V14.01,2013-04-09 20:46:00,
2013-04-09 16:52:00,82.6,55.1,30.15,South,180,1.3,4.7,39,0.00,,---,0.00,VWS V14.01,2013-04-09 20:52:00,
2013-04-09 16:58:00,82.9,55.5,30.15,WNW,292,3.8,3.8,39,0.00,,---,0.00,VWS V14.01,2013-04-09 20:58:00,
2013-04-09 17:04:00,83.1,55.6,30.15,South,180,2.9,4.0,39,0.00,,---,0.00,VWS V14.01,2013-04-09 21:04:00,
2013-04-09 17:09:00,82.9,55.5,30.15,NW,315,5.4,5.4,39,0.00,,---,0.00,VWS V14.01,2013-04-09 21:09:00,
2013-04-09 17:14:00,82.8,55.3,30.15,NW,315,1.3,1.3,39,0.00,,---,0.00,VWS V14.01,2013-04-09 21:14:00,
2013-04-09 17:19:00,82.6,54.4,30.15,WSW,248,5.8,5.8,38,0.00,,---,0.00,VWS V14.01,2013-04-09 21:19:00,
2013-04-09 17:25:00,82.4,54.3,30.15,WNW,292,0.0,0.0,38,0.00,,---,0.00,VWS V14.01,2013-04-09 21:25:00,
2013-04-09 17:30:00,82.9,55.5,30.15,SSW,202,2.5,2.5,39,0.00,,---,0.00,VWS V14.01,2013-04-09 21:30:00,
2013-04-09 17:35:00,82.9,55.5,30.15,East,90,4.9,4.9,39,0.00,,---,0.00,VWS V14.01,2013-04-09 21:35:00,
2013-04-09 17:40:00,83.3,55.1,30.15,NNW,338,2.5,2.5,38,0.00,,---,0.00,VWS V14.01,2013-04-09 21:40:00,
2013-04-09 17:45:00,83.3,55.1,30.15,South,180,3.8,3.8,38,0.00,,---,0.00,VWS V14.01,2013-04-09 21:45:00,
2013-04-09 17:50:00,83.1,54.2,30.15,SE,135,1.1,2.0,37,0.00,,---,0.00,VWS V14.01,2013-04-09 21:50:00,
2013-04-09 17:56:00,83.3,54.3,30.15,SW,225,2.0,4.9,37,0.00,,---,0.00,VWS V14.01,2013-04-09 21:56:00,
2013-04-09 18:01:00,82.9,54.8,30.15,South,180,1.1,2.5,38,0.00,,---,0.00,VWS V14.01,2013-04-09 22:01:00,
2013-04-09 18:07:00,82.6,54.4,30.15,WNW,292,2.0,2.0,38,0.00,,---,0.00,VWS V14.01,2013-04-09 22:07:00,
2013-04-09 18:12:00,82.0,54.7,30.15,North,0,1.3,2.9,39,0.00,,---,0.00,VWS V14.01,2013-04-09 22:12:00,
2013-04-09 18:17:00,81.9,53.8,30.18,WNW,292,0.0,3.6,38,0.00,,---,0.00,VWS V14.01,2013-04-09 22:17:00,
2013-04-09 18:23:00,82.0,54.7,30.18,North,0,2.2,2.7,39,0.00,,---,0.00,VWS V14.01,2013-04-09 22:23:00,
2013-04-09 18:29:00,82.2,54.8,30.18,SSW,202,2.9,2.9,39,0.00,,---,0.00,VWS V14.01,2013-04-09 22:29:00,
2013-04-09 18:34:00,82.2,54.8,30.15,SW,225,2.5,2.5,39,0.00,,---,0.00,VWS V14.01,2013-04-09 22:34:00,
2013-04-09 18:39:00,82.4,54.3,30.15,SSW,202,2.0,2.0,38,0.00,,---,0.00,VWS V14.01,2013-04-09 22:39:00,
2013-04-09 18:44:00,82.4,54.3,30.15,NNW,338,2.0,3.4,38,0.00,,---,0.00,VWS V14.01,2013-04-09 22:44:00,
2013-04-09 18:49:00,82.4,53.5,30.15,North,0,1.6,2.0,37,0.00,,---,0.00,VWS V14.01,2013-04-09 22:49:00,
2013-04-09 18:55:00,82.0,52.5,30.15,South,180,1.3,1.3,36,0.00,,---,0.00,VWS V14.01,2013-04-09 22:55:00,
2013-04-09 19:00:00,81.5,53.5,30.15,SW,225,2.9,2.9,38,0.00,,---,0.00,VWS V14.01,2013-04-09 23:00:00,
2013-04-09 19:05:00,81.1,53.9,30.15,WNW,292,2.7,2.7,39,0.00,,---,0.00,VWS V14.01,2013-04-09 23:05:00,
2013-04-09 19:10:00,81.0,54.4,30.15,NNW,338,2.9,2.9,40,0.00,,---,0.00,VWS V14.01,2013-04-09 23:10:00,
2013-04-09 19:15:00,80.8,54.2,30.15,North,0,2.0,2.0,40,0.00,,---,0.00,VWS V14.01,2013-04-09 23:15:00,
2013-04-09 19:20:00,80.6,54.1,30.15,NW,315,0.0,2.5,40,0.00,,---,0.00,VWS V14.01,2013-04-09 23:20:00,
2013-04-09 19:26:00,80.2,54.4,30.15,NW,315,0.9,2.0,41,0.00,,---,0.00,VWS V14.01,2013-04-09 23:26:00,
2013-04-09 19:31:00,80.1,54.3,30.15,NW,315,0.0,0.9,41,0.00,,---,0.00,VWS V14.01,2013-04-09 23:31:00,
2013-04-09 19:36:00,79.7,53.9,30.15,NNE,22,2.2,2.7,41,0.00,,---,0.00,VWS V14.01,2013-04-09 23:36:00,
2013-04-09 19:41:00,79.5,53.8,30.15,WNW,292,3.6,3.6,41,0.00,,---,0.00,VWS V14.01,2013-04-09 23:41:00,
2013-04-09 19:46:00,79.2,53.5,30.15,West,270,2.0,2.2,41,0.00,,---,0.00,VWS V14.01,2013-04-09 23:46:00,
2013-04-09 19:51:00,79.0,53.3,30.15,ENE,68,0.0,0.9,41,0.00,,---,0.00,VWS V14.01,2013-04-09 23:51:00,
2013-04-09 19:56:00,78.8,53.1,30.15,NE,45,2.0,2.2,41,0.00,,---,0.00,VWS V14.01,2013-04-09 23:56:00,
2013-04-09 20:01:00,78.6,53.6,30.15,WNW,292,0.0,0.0,42,0.00,,---,0.00,VWS V14.01,2013-04-10 00:01:00,
2013-04-09 20:06:00,78.4,53.5,30.15,North,0,0.0,0.0,42,0.00,,---,0.00,VWS V14.01,2013-04-10 00:06:00,
2013-04-09 20:12:00,78.3,54.0,30.15,NE,45,1.6,2.2,43,0.00,,---,0.00,VWS V14.01,2013-04-10 00:12:00,
2013-04-09 20:17:00,77.9,53.6,30.15,North,0,0.0,0.0,43,0.00,,---,0.00,VWS V14.01,2013-04-10 00:17:00,
2013-04-09 20:22:00,77.9,53.6,30.15,SSW,202,0.0,0.0,43,0.00,,---,0.00,VWS V14.01,2013-04-10 00:22:00,
2013-04-09 20:27:00,77.7,53.5,30.15,North,0,0.0,0.0,43,0.00,,---,0.00,VWS V14.01,2013-04-10 00:27:00,
2013-04-09 20:33:00,77.5,53.9,30.18,NNE,22,0.0,0.0,44,0.00,,---,0.00,VWS V14.01,2013-04-10 00:33:00,
2013-04-09 20:38:00,77.4,53.8,30.18,NNE,22,0.0,0.0,44,0.00,,---,0.00,VWS V14.01,2013-04-10 00:38:00,
2013-04-09 20:43:00,77.4,53.8,30.18,NW,315,0.0,0.0,44,0.00,,---,0.00,VWS V14.01,2013-04-10 00:43:00,
2013-04-09 20:48:00,77.2,53.6,30.18,West,270,0.0,1.6,44,0.00,,---,0.00,VWS V14.01,2013-04-10 00:48:00,
2013-04-09 20:53:00,77.2,53.6,30.18,NNE,22,1.1,1.3,44,0.00,,---,0.00,VWS V14.01,2013-04-10 00:53:00,
2013-04-09 20:59:00,77.0,53.4,30.18,East,90,2.9,3.4,44,0.00,,---,0.00,VWS V14.01,2013-04-10 00:59:00,
2013-04-09 21:04:00,77.0,53.4,30.18,ESE,112,2.0,2.0,44,0.00,,---,0.00,VWS V14.01,2013-04-10 01:04:00,
2013-04-09 21:10:00,77.0,53.4,30.18,ESE,112,2.7,3.1,44,0.00,,---,0.00,VWS V14.01,2013-04-10 01:10:00,
2013-04-09 21:15:00,77.2,53.6,30.18,North,0,3.4,3.8,44,0.00,,---,0.00,VWS V14.01,2013-04-10 01:15:00,
2013-04-09 21:20:00,77.2,53.6,30.18,SE,135,4.3,4.3,44,0.00,,---,0.00,VWS V14.01,2013-04-10 01:20:00,
2013-04-09 21:26:00,77.2,53.6,30.18,ESE,112,4.3,4.3,44,0.00,,---,0.00,VWS V14.01,2013-04-10 01:26:00,
2013-04-09 21:32:00,77.0,53.4,30.18,ENE,68,3.6,3.6,44,0.00,,---,0.00,VWS V14.01,2013-04-10 01:32:00,
2013-04-09 21:37:00,77.0,52.8,30.18,North,0,4.3,4.3,43,0.00,,---,0.00,VWS V14.01,2013-04-10 01:37:00,
2013-04-09 21:43:00,77.0,52.8,30.18,ESE,112,3.1,3.4,43,0.00,,---,0.00,VWS V14.01,2013-04-10 01:43:00,
2013-04-09 21:49:00,76.8,53.3,30.21,NE,45,2.9,2.9,44,0.00,,---,0.00,VWS V14.01,2013-04-10 01:49:00,
2013-04-09 21:54:00,76.6,53.1,30.21,East,90,3.6,7.2,44,0.00,,---,0.00,VWS V14.01,2013-04-10 01:54:00,
2013-04-09 21:59:00,76.5,53.0,30.21,SE,135,4.3,6.0,44,0.00,,---,0.00,VWS V14.01,2013-04-10 01:59:00,
2013-04-09 22:05:00,76.3,52.8,30.18,ESE,112,3.1,3.4,44,0.00,,---,0.00,VWS V14.01,2013-04-10 02:05:00,
2013-04-09 22:10:00,76.1,52.6,30.18,ENE,68,2.7,4.9,44,0.00,,---,0.00,VWS V14.01,2013-04-10 02:10:00,
2013-04-09 22:16:00,75.9,53.1,30.18,ESE,112,4.9,4.9,45,0.00,,---,0.00,VWS V14.01,2013-04-10 02:16:00,
2013-04-09 22:22:00,75.7,52.9,30.18,SE,135,4.3,4.7,45,0.00,,---,0.00,VWS V14.01,2013-04-10 02:22:00,
2013-04-09 22:27:00,75.4,52.6,30.18,ENE,68,3.6,3.6,45,0.00,,---,0.00,VWS V14.01,2013-04-10 02:27:00,
2013-04-09 22:33:00,75.2,52.4,30.21,ESE,112,3.4,3.8,45,0.00,,---,0.00,VWS V14.01,2013-04-10 02:33:00,
2013-04-09 22:39:00,75.0,52.9,30.21,East,90,3.1,4.3,46,0.00,,---,0.00,VWS V14.01,2013-04-10 02:39:00,
2013-04-09 22:44:00,74.8,53.3,30.21,NE,45,2.5,4.3,47,0.00,,---,0.00,VWS V14.01,2013-04-10 02:44:00,
2013-04-09 22:50:00,74.7,53.1,30.21,ENE,68,3.8,4.0,47,0.00,,---,0.00,VWS V14.01,2013-04-10 02:50:00,
2013-04-09 22:55:00,74.5,53.0,30.21,East,90,4.9,4.9,47,0.00,,---,0.00,VWS V14.01,2013-04-10 02:55:00,
2013-04-09 23:01:00,74.3,53.4,30.21,East,90,2.2,2.9,48,0.00,,---,0.00,VWS V14.01,2013-04-10 03:01:00,
2013-04-09 23:06:00,74.1,53.2,30.21,NE,45,3.4,3.4,48,0.00,,---,0.00,VWS V14.01,2013-04-10 03:06:00,
2013-04-09 23:12:00,73.9,53.0,30.21,ENE,68,2.0,3.4,48,0.00,,---,0.00,VWS V14.01,2013-04-10 03:12:00,
2013-04-09 23:17:00,73.8,53.4,30.21,East,90,2.5,2.9,49,0.00,,---,0.00,VWS V14.01,2013-04-10 03:17:00,
2013-04-09 23:22:00,73.6,53.3,30.21,ENE,68,1.6,4.0,49,0.00,,---,0.00,VWS V14.01,2013-04-10 03:22:00,
2013-04-09 23:27:00,73.4,53.1,30.21,NNE,22,4.0,5.4,49,0.00,,---,0.00,VWS V14.01,2013-04-10 03:27:00,
2013-04-09 23:32:00,73.2,53.5,30.21,ENE,68,2.5,2.7,50,0.00,,---,0.00,VWS V14.01,2013-04-10 03:32:00,
2013-04-09 23:37:00,73.0,53.3,30.21,ESE,112,3.1,3.6,50,0.00,,---,0.00,VWS V14.01,2013-04-10 03:37:00,
2013-04-09 23:43:00,72.9,53.7,30.21,ENE,68,2.5,2.5,51,0.00,,---,0.00,VWS V14.01,2013-04-10 03:43:00,
2013-04-09 23:48:00,72.7,53.5,30.21,East,90,4.0,4.9,51,0.00,,---,0.00,VWS V14.01,2013-04-10 03:48:00,
2013-04-09 23:53:00,72.5,53.9,30.21,NNE,22,2.2,3.4,52,0.00,,---,0.00,VWS V14.01,2013-04-10 03:53:00,
2013-04-09 23:58:00,72.5,53.9,30.21,NNE,22,0.0,3.6,52,0.00,,---,0.00,VWS V14.01,2013-04-10 03:58:00,